^^
TXWeather Station Historical Data
 
Daily Summary for September 20, 2021 Units:  English    Metric   Both
Daily Weekly Monthly Yearly Custom
  Current: High: Low: Average:
Temperature: 88.2 °F 89.8 °F 75.7 °F 79.4 °F
Dew Point: 76.8 °F 78.4 °F 72.9 °F 74.5 °F
Humidity: 71% 91% 67% 85%
Wind Speed: 5mph 10mph 0mph 3.2mph
Wind Gust: 7mph 10mph - -
WindSSW - - South
Pressure: 30.0 in 30.0 in 29.9 in -
Precipitation: 0.000 in      
Historical Graphs
 
 
Tabular Data for September 20, 2021
Time Temperature Dew Point Pressure Wind Wind Speed Wind Gust Humidity Rainfall Rate (Hourly) solar
00:04 79.3 °F 73.8 °F 29.9 in SE 2 mph 5 mph 83% 0.000 in 0.00 W/m2
00:09 79.3 °F 73.8 °F 29.9 in SSE 1 mph 3 mph 83% 0.000 in 0.00 W/m2
00:14 79.2 °F 73.6 °F 29.9 in SSE 3 mph 3 mph 83% 0.000 in 0.00 W/m2
00:19 79.2 °F 73.8 °F 29.9 in SSE 3 mph 3 mph 84% 0.000 in 0.00 W/m2
00:24 79.0 °F 73.8 °F 29.9 in SSE 4 mph 5 mph 84% 0.000 in 0.00 W/m2
00:29 79.0 °F 73.8 °F 29.9 in SSE 4 mph 4 mph 84% 0.000 in 0.00 W/m2
00:34 79.0 °F 73.8 °F 29.9 in SSE 4 mph 5 mph 84% 0.000 in 0.00 W/m2
00:39 79.0 °F 73.8 °F 29.9 in SSE 4 mph 4 mph 84% 0.000 in 0.00 W/m2
00:44 79.0 °F 73.9 °F 29.9 in SSE 5 mph 5 mph 85% 0.000 in 0.00 W/m2
00:49 78.8 °F 73.9 °F 29.9 in SSE 5 mph 5 mph 85% 0.000 in 0.00 W/m2
00:54 78.6 °F 73.8 °F 29.9 in SSE 4 mph 4 mph 85% 0.000 in 0.00 W/m2
00:59 78.6 °F 73.8 °F 29.9 in SSE 4 mph 5 mph 85% 0.000 in 0.00 W/m2
01:04 78.6 °F 73.8 °F 29.9 in SSE 2 mph 2 mph 85% 0.000 in 0.00 W/m2
01:09 78.4 °F 73.6 °F 29.9 in SSE 3 mph 3 mph 85% 0.000 in 0.00 W/m2
01:14 78.4 °F 73.9 °F 29.9 in SE 4 mph 4 mph 86% 0.000 in 0.00 W/m2
01:19 78.4 °F 73.9 °F 29.9 in SE 1 mph 3 mph 86% 0.000 in 0.00 W/m2
01:24 78.3 °F 73.8 °F 29.9 in SE 2 mph 3 mph 86% 0.000 in 0.00 W/m2
01:29 78.1 °F 73.6 °F 29.9 in SE 3 mph 3 mph 86% 0.000 in 0.00 W/m2
01:34 78.3 °F 73.8 °F 29.9 in SE 2 mph 2 mph 86% 0.000 in 0.00 W/m2
01:39 78.3 °F 73.8 °F 29.9 in SE 3 mph 4 mph 86% 0.000 in 0.00 W/m2
01:44 78.1 °F 73.6 °F 29.9 in SE 3 mph 3 mph 86% 0.000 in 0.00 W/m2
01:49 78.1 °F 73.6 °F 29.9 in SE 3 mph 3 mph 86% 0.000 in 0.00 W/m2
01:54 78.1 °F 73.6 °F 29.9 in SSE 4 mph 5 mph 86% 0.000 in 0.00 W/m2
01:59 78.1 °F 73.6 °F 29.9 in South 5 mph 5 mph 86% 0.000 in 0.00 W/m2
02:04 77.9 °F 73.4 °F 29.9 in South 2 mph 4 mph 86% 0.000 in 0.00 W/m2
02:09 77.7 °F 73.6 °F 29.9 in South 1 mph 3 mph 87% 0.000 in 0.00 W/m2
02:14 77.7 °F 73.6 °F 29.9 in South 2 mph 3 mph 87% 0.000 in 0.00 W/m2
02:19 77.7 °F 73.6 °F 29.9 in South 2 mph 4 mph 87% 0.000 in 0.00 W/m2
02:24 77.7 °F 73.6 °F 29.9 in South 1 mph 2 mph 87% 0.000 in 0.00 W/m2
02:29 77.5 °F 73.4 °F 29.9 in South 2 mph 4 mph 87% 0.000 in 0.00 W/m2
02:34 77.4 °F 73.2 °F 29.9 in South 2 mph 2 mph 87% 0.000 in 0.00 W/m2
02:39 77.4 °F 73.2 °F 29.9 in South 2 mph 2 mph 87% 0.000 in 0.00 W/m2
02:44 77.4 °F 73.2 °F 29.9 in South 4 mph 4 mph 87% 0.000 in 0.00 W/m2
02:49 77.5 °F 73.4 °F 29.9 in South 4 mph 4 mph 87% 0.000 in 0.00 W/m2
02:54 77.5 °F 73.4 °F 29.9 in South 4 mph 4 mph 87% 0.000 in 0.00 W/m2
02:59 77.5 °F 73.4 °F 29.9 in South 5 mph 5 mph 87% 0.000 in 0.00 W/m2
03:04 77.5 °F 73.4 °F 29.9 in South 2 mph 3 mph 87% 0.000 in 0.00 W/m2
03:09 77.5 °F 73.4 °F 29.9 in South 2 mph 3 mph 87% 0.000 in 0.00 W/m2
03:14 77.5 °F 73.4 °F 29.9 in South 2 mph 3 mph 87% 0.000 in 0.00 W/m2
03:19 77.4 °F 73.2 °F 29.9 in South 3 mph 3 mph 87% 0.000 in 0.00 W/m2
03:24 77.4 °F 73.6 °F 29.9 in South 1 mph 2 mph 88% 0.000 in 0.00 W/m2
03:29 77.2 °F 73.4 °F 29.9 in South 2 mph 2 mph 88% 0.000 in 0.00 W/m2
03:34 77.0 °F 73.2 °F 29.9 in South 2 mph 2 mph 88% 0.000 in 0.00 W/m2
03:39 76.8 °F 73.0 °F 29.9 in South 1 mph 1 mph 88% 0.000 in 0.00 W/m2
03:44 76.6 °F 73.2 °F 29.9 in South 1 mph 1 mph 89% 0.000 in 0.00 W/m2
03:49 76.6 °F 73.2 °F 29.9 in South 2 mph 2 mph 89% 0.000 in 0.00 W/m2
03:54 76.6 °F 73.2 °F 29.9 in South 1 mph 2 mph 89% 0.000 in 0.00 W/m2
03:59 76.6 °F 73.2 °F 29.9 in South 2 mph 2 mph 89% 0.000 in 0.00 W/m2
04:04 76.6 °F 73.2 °F 29.9 in South 2 mph 2 mph 89% 0.000 in 0.00 W/m2
04:09 76.6 °F 73.2 °F 29.9 in South 1 mph 2 mph 89% 0.000 in 0.00 W/m2
04:14 76.6 °F 73.2 °F 29.9 in South 3 mph 3 mph 89% 0.000 in 0.00 W/m2
04:19 76.6 °F 73.2 °F 29.9 in SSE 4 mph 4 mph 89% 0.000 in 0.00 W/m2
04:24 76.6 °F 73.2 °F 29.9 in SSE 2 mph 2 mph 89% 0.000 in 0.00 W/m2
04:29 76.6 °F 73.2 °F 29.9 in SSE 1 mph 3 mph 89% 0.000 in 0.00 W/m2
04:34 76.6 °F 73.2 °F 29.9 in SSE 1 mph 1 mph 89% 0.000 in 0.00 W/m2
04:39 76.5 °F 73.2 °F 29.9 in SSE 2 mph 2 mph 90% 0.000 in 0.00 W/m2
04:44 76.5 °F 73.2 °F 29.9 in SSE 1 mph 2 mph 90% 0.000 in 0.00 W/m2
04:49 76.5 °F 73.2 °F 29.9 in SSE 2 mph 2 mph 90% 0.000 in 0.00 W/m2
04:54 76.5 °F 73.2 °F 29.9 in SSE 2 mph 2 mph 90% 0.000 in 0.00 W/m2
04:59 76.5 °F 73.2 °F 29.9 in SSE 1 mph 2 mph 90% 0.000 in 0.00 W/m2
05:04 76.5 °F 73.2 °F 29.9 in SSE 4 mph 4 mph 90% 0.000 in 0.00 W/m2
05:09 76.5 °F 73.2 °F 29.9 in SSE 2 mph 4 mph 90% 0.000 in 0.00 W/m2
05:14 76.5 °F 73.2 °F 29.9 in SSE 1 mph 2 mph 90% 0.000 in 0.00 W/m2
05:19 76.5 °F 73.2 °F 29.9 in SSE 2 mph 2 mph 90% 0.000 in 0.00 W/m2
05:24 76.3 °F 73.0 °F 29.9 in SSE 1 mph 1 mph 90% 0.000 in 0.00 W/m2
05:29 76.1 °F 72.9 °F 29.9 in SSE 1 mph 1 mph 90% 0.000 in 0.00 W/m2
05:34 76.1 °F 72.9 °F 29.9 in Calm     90% 0.000 in 0.00 W/m2
05:39 75.9 °F 72.9 °F 29.9 in Calm     90% 0.000 in 0.00 W/m2
05:44 75.9 °F 72.9 °F 29.9 in SSE 1 mph 1 mph 90% 0.000 in 0.00 W/m2
05:49 75.9 °F 72.9 °F 29.9 in SSE 1 mph 1 mph 90% 0.000 in 0.00 W/m2
05:54 75.7 °F 72.9 °F 29.9 in Calm     91% 0.000 in 0.00 W/m2
05:59 75.7 °F 72.9 °F 29.9 in Calm     91% 0.000 in 0.00 W/m2
06:04 75.7 °F 72.9 °F 29.9 in Calm     91% 0.000 in 0.00 W/m2
06:09 75.7 °F 72.9 °F 29.9 in Calm     91% 0.000 in 0.00 W/m2
06:14 75.7 °F 72.9 °F 29.9 in SSE 1 mph 1 mph 91% 0.000 in 0.00 W/m2
06:19 75.7 °F 72.9 °F 29.9 in Calm   1 mph 91% 0.000 in 0.00 W/m2
06:24 75.9 °F 73.0 °F 29.9 in SSE 1 mph 1 mph 91% 0.000 in 0.00 W/m2
06:29 75.9 °F 73.0 °F 29.9 in SSE 1 mph 2 mph 91% 0.000 in 0.00 W/m2
06:34 75.9 °F 73.0 °F 29.9 in SSE 1 mph 2 mph 91% 0.000 in 0.00 W/m2
06:39 75.9 °F 73.0 °F 29.9 in SSE 1 mph 1 mph 91% 0.000 in 0.00 W/m2
06:44 75.7 °F 72.9 °F 29.9 in SSE 1 mph 1 mph 91% 0.000 in 0.00 W/m2
06:49 75.7 °F 72.9 °F 29.9 in SSE 1 mph 1 mph 91% 0.000 in 0.00 W/m2
06:54 75.7 °F 72.9 °F 29.9 in SSE 1 mph 1 mph 91% 0.000 in 0.00 W/m2
06:59 75.7 °F 72.9 °F 29.9 in Calm   1 mph 91% 0.000 in 0.00 W/m2
07:04 75.7 °F 72.9 °F 29.9 in SSE 1 mph 1 mph 91% 0.000 in 0.00 W/m2
07:09 75.7 °F 72.9 °F 29.9 in SSE 2 mph 2 mph 91% 0.000 in 0.00 W/m2
07:14 75.9 °F 73.0 °F 29.9 in SSE 1 mph 2 mph 91% 0.000 in 0.00 W/m2
07:19 75.9 °F 73.0 °F 29.9 in SSE 2 mph 2 mph 91% 0.000 in 7.00 W/m2
07:24 76.1 °F 73.2 °F 29.9 in SSE 2 mph 2 mph 91% 0.000 in 9.00 W/m2
07:29 76.3 °F 73.4 °F 29.9 in SSE 1 mph 2 mph 91% 0.000 in 14.00 W/m2
07:34 76.3 °F 73.4 °F 29.9 in SSE 2 mph 2 mph 91% 0.000 in 21.00 W/m2
07:39 76.5 °F 73.6 °F 29.9 in SSE 1 mph 2 mph 91% 0.000 in 30.00 W/m2
07:44 76.3 °F 73.4 °F 29.9 in Calm     91% 0.000 in 32.00 W/m2
07:49 76.5 °F 73.6 °F 29.9 in SSE 1 mph 1 mph 91% 0.000 in 21.00 W/m2
07:54 76.6 °F 73.8 °F 29.9 in Calm   1 mph 91% 0.000 in 23.00 W/m2
07:59 77.0 °F 74.1 °F 29.9 in SSE 1 mph 1 mph 91% 0.000 in 26.00 W/m2
08:04 77.2 °F 74.3 °F 29.9 in SSE 2 mph 2 mph 91% 0.000 in 28.00 W/m2
08:09 77.5 °F 74.7 °F 29.9 in SSE 4 mph 5 mph 91% 0.000 in 33.00 W/m2
08:14 77.7 °F 74.7 °F 29.9 in SSE 4 mph 4 mph 91% 0.000 in 62.00 W/m2
08:19 78.3 °F 75.0 °F 29.9 in SSE 4 mph 5 mph 90% 0.000 in 125.00 W/m2
08:24 79.0 °F 75.7 °F 29.9 in SSE 4 mph 4 mph 90% 0.000 in 214.00 W/m2
08:29 79.2 °F 75.9 °F 29.9 in South 4 mph 4 mph 90% 0.000 in 214.00 W/m2
08:34 79.3 °F 75.6 °F 29.9 in SSE 4 mph 4 mph 89% 0.000 in 204.00 W/m2
08:39 79.7 °F 75.7 °F 29.9 in SSE 4 mph 4 mph 88% 0.000 in 211.00 W/m2
08:44 80.2 °F 76.1 °F 29.9 in SSE 2 mph 4 mph 88% 0.000 in 246.00 W/m2
08:49 80.4 °F 76.1 °F 29.9 in South 4 mph 4 mph 87% 0.000 in 246.00 W/m2
08:54 81.0 °F 76.5 °F 29.9 in South 3 mph 3 mph 87% 0.000 in 276.00 W/m2
08:59 81.1 °F 76.5 °F 30.0 in SSW 4 mph 6 mph 86% 0.000 in 320.00 W/m2
09:04 81.3 °F 76.5 °F 30.0 in SSW 3 mph 6 mph 85% 0.000 in 323.00 W/m2
09:09 82.0 °F 77.4 °F 30.0 in South 5 mph 5 mph 86% 0.000 in 329.00 W/m2
09:14 82.6 °F 77.2 °F 29.9 in SSE 5 mph 5 mph 85% 0.000 in 392.00 W/m2
09:19 82.6 °F 77.2 °F 30.0 in SW 8 mph 8 mph 84% 0.000 in 425.00 W/m2
09:24 82.9 °F 77.4 °F 30.0 in SSW 3 mph 5 mph 84% 0.000 in 380.00 W/m2
09:29 83.1 °F 77.4 °F 30.0 in SSW 4 mph 5 mph 83% 0.000 in 461.00 W/m2
09:34 83.1 °F 77.0 °F 30.0 in SSW 4 mph 5 mph 82% 0.000 in 271.00 W/m2
09:39 83.8 °F 77.9 °F 30.0 in SW 7 mph 8 mph 83% 0.000 in 188.00 W/m2
09:44 83.8 °F 77.5 °F 30.0 in SSW 4 mph 8 mph 82% 0.000 in 613.00 W/m2
09:49 83.8 °F 77.4 °F 30.0 in SW 6 mph 7 mph 81% 0.000 in 577.00 W/m2
09:54 84.0 °F 77.5 °F 30.0 in WSW 10 mph 10 mph 81% 0.000 in 577.00 W/m2
09:59 84.0 °F 77.2 °F 30.0 in SW 6 mph 8 mph 80% 0.000 in 587.00 W/m2
10:04 84.4 °F 77.4 °F 30.0 in SSW 4 mph 5 mph 80% 0.000 in 587.00 W/m2
10:09 84.7 °F 77.5 °F 30.0 in South 4 mph 5 mph 79% 0.000 in 693.00 W/m2
10:14 84.7 °F 77.2 °F 30.0 in SSW 6 mph 7 mph 78% 0.000 in 265.00 W/m2
10:19 85.5 °F 78.3 °F 30.0 in SW 6 mph 7 mph 79% 0.000 in 244.00 W/m2
10:24 85.5 °F 78.3 °F 30.0 in SW 7 mph 7 mph 79% 0.000 in 248.00 W/m2
10:29 84.9 °F 76.6 °F 30.0 in SW 8 mph 8 mph 77% 0.000 in 768.00 W/m2
10:34 85.5 °F 76.5 °F 30.0 in SW 8 mph 8 mph 76% 0.000 in 768.00 W/m2
10:39 85.8 °F 76.6 °F 30.0 in SW 7 mph 7 mph 75% 0.000 in 758.00 W/m2
10:44 87.1 °F 77.7 °F 30.0 in South 5 mph 7 mph 75% 0.000 in 756.00 W/m2
10:49 87.4 °F 77.7 °F 30.0 in South 9 mph 9 mph 73% 0.000 in 737.00 W/m2
10:54 87.4 °F 77.4 °F 30.0 in South 10 mph 10 mph 72% 0.000 in 798.00 W/m2
10:59 87.4 °F 77.7 °F 30.0 in South 7 mph 10 mph 73% 0.000 in 809.00 W/m2
11:04 88.0 °F 77.7 °F 30.0 in SSW 7 mph 8 mph 72% 0.000 in 889.00 W/m2
11:09 88.3 °F 78.1 °F 30.0 in South 6 mph 8 mph 72% 0.000 in 889.00 W/m2
11:14 87.6 °F 76.6 °F 30.0 in SW 8 mph 8 mph 71% 0.000 in 645.00 W/m2
11:19 87.1 °F 76.5 °F 30.0 in SW 5 mph 5 mph 72% 0.000 in 779.00 W/m2
11:24 87.8 °F 77.0 °F 30.0 in SSW 6 mph 6 mph 71% 0.000 in 782.00 W/m2
11:29 88.2 °F 77.0 °F 30.0 in South 4 mph 5 mph 70% 0.000 in 814.00 W/m2
11:34 89.4 °F 78.4 °F 30.0 in SSW 8 mph 8 mph 71% 0.000 in 821.00 W/m2
11:39 89.6 °F 77.2 °F 30.0 in SSE 9 mph 10 mph 67% 0.000 in 930.00 W/m2
11:44 89.4 °F 77.5 °F 30.0 in South 8 mph 9 mph 68% 0.000 in 954.00 W/m2
11:49 89.8 °F 78.3 °F 30.0 in SW 7 mph 7 mph 69% 0.000 in 965.00 W/m2
11:54 89.8 °F 77.4 °F 30.0 in WSW 9 mph 9 mph 68% 0.000 in 267.00 W/m2
11:59 88.2 °F 76.8 °F 30.0 in SSW 5 mph 7 mph 71% 0.000 in 287.00 W/m2
Villages of Bridgestone, Spring, TX USA
Compliments of Weather Underground - 4 mb